Time;durP1;ratioP1;P1;durP2;ratioP2;P2;SDS_P1;SDS_P2;PMS_P1;PMS_P2;Temp;Humidity;BMP_temperature;BMP_pressure;BME280_temperature;BME280_humidity;BME280_pressure;Samples;Min_cycle;Max_cycle;Signal;HPM_P1;HPM_P2
2023/07/08 00:00:26;;;;;;;6.90;6.18;;;26.30;99.90;;;;;;5036279;28;20041;-61
2023/07/08 00:02:52;;;;;;;6.50;5.85;;;26.30;99.90;;;;;;5036874;28;20352;-61
2023/07/08 00:05:20;;;;;;;8.35;5.22;;;26.30;99.90;;;;;;5037095;28;20031;-61
2023/07/08 00:07:47;;;;;;;7.38;5.80;;;26.20;99.90;;;;;;5032611;28;20025;-61
2023/07/08 00:10:17;;;;;;;8.75;5.95;;;26.20;99.90;;;;;;5038999;28;20025;-61
2023/07/08 00:12:45;;;;;;;8.57;5.93;;;26.30;99.90;;;;;;5039169;28;20018;-61
2023/07/08 00:15:12;;;;;;;9.40;6.35;;;26.30;99.90;;;;;;5035799;28;20508;-61
2023/07/08 00:17:38;;;;;;;7.03;5.28;;;26.30;99.90;;;;;;5036955;28;20043;-61
2023/07/08 00:20:20;;;;;;;8.15;5.20;;;26.20;99.90;;;;;;5036135;28;20068;-61
2023/07/08 00:22:52;;;;;;;7.07;5.68;;;26.20;99.90;;;;;;5021605;28;20038;-61
2023/07/08 00:25:20;;;;;;;7.88;5.88;;;26.30;99.90;;;;;;5029115;28;20478;-61
2023/07/08 00:27:47;;;;;;;6.70;6.05;;;26.30;99.90;;;;;;5021157;28;20439;-62
2023/07/08 00:30:28;;;;;;;9.25;5.80;;;26.20;99.90;;;;;;5035911;28;20394;-62
2023/07/08 00:32:55;;;;;;;9.20;5.40;;;26.20;99.90;;;;;;5033585;28;20112;-61
2023/07/08 00:35:33;;;;;;;9.20;5.57;;;26.20;99.90;;;;;;5037925;28;20030;-61
2023/07/08 00:38:02;;;;;;;8.57;6.18;;;26.20;99.90;;;;;;5033233;28;20029;-61
2023/07/08 00:40:33;;;;;;;8.85;6.35;;;26.10;99.90;;;;;;5028400;28;20049;-61
2023/07/08 00:43:03;;;;;;;7.75;6.03;;;26.10;99.90;;;;;;5036469;28;20033;-61
2023/07/08 00:45:34;;;;;;;6.55;5.78;;;26.00;99.90;;;;;;5035465;28;20037;-61
2023/07/08 00:48:19;;;;;;;7.40;6.20;;;26.00;99.90;;;;;;5035741;28;20024;-61
2023/07/08 00:50:44;;;;;;;9.45;5.80;;;26.00;99.90;;;;;;5036104;28;20030;-61
2023/07/08 00:53:28;;;;;;;9.23;5.90;;;25.90;99.90;;;;;;5031383;28;20061;-61
2023/07/08 00:56:01;;;;;;;8.45;5.97;;;25.90;99.90;;;;;;5028838;28;20109;-61
2023/07/08 00:58:37;;;;;;;7.05;5.50;;;25.90;99.90;;;;;;5038120;28;20045;-61
2023/07/08 01:01:06;;;;;;;8.68;5.85;;;25.80;99.90;;;;;;5029576;28;20041;-61
2023/07/08 01:03:36;;;;;;;7.88;5.80;;;25.90;99.90;;;;;;5036138;28;20029;-61
2023/07/08 01:06:02;;;;;;;8.18;5.57;;;25.90;99.90;;;;;;5035686;28;20056;-61
2023/07/08 01:08:30;;;;;;;7.22;5.65;;;25.90;99.90;;;;;;5032838;28;20087;-61
2023/07/08 01:11:01;;;;;;;10.23;6.28;;;25.90;99.90;;;;;;5034313;28;20471;-61
2023/07/08 01:13:35;;;;;;;6.68;5.97;;;25.90;99.90;;;;;;5039299;28;20032;-61
2023/07/08 01:16:02;;;;;;;6.53;5.47;;;25.90;99.90;;;;;;5031868;28;20359;-61
2023/07/08 01:18:28;;;;;;;10.80;5.78;;;25.90;99.90;;;;;;5034368;28;20044;-61
2023/07/08 01:20:55;;;;;;;10.88;6.03;;;25.90;99.90;;;;;;5034654;28;20080;-61
2023/07/08 01:23:21;;;;;;;8.52;5.50;;;25.90;99.90;;;;;;5034954;28;20032;-61
2023/07/08 01:25:47;;;;;;;9.55;5.72;;;25.90;99.90;;;;;;5032728;28;20083;-61
2023/07/08 01:28:13;;;;;;;6.95;5.57;;;25.90;99.90;;;;;;5036468;28;20109;-61
2023/07/08 01:30:42;;;;;;;6.45;5.18;;;25.90;99.90;;;;;;5033756;28;20370;-61
2023/07/08 01:33:18;;;;;;;7.40;5.13;;;25.90;99.90;;;;;;5033929;28;20502;-61
2023/07/08 01:35:46;;;;;;;7.32;5.30;;;25.90;99.90;;;;;;5031167;28;20033;-61
2023/07/08 01:38:15;;;;;;;7.13;5.43;;;25.90;99.90;;;;;;5033900;28;20117;-61
2023/07/08 01:40:50;;;;;;;6.53;5.40;;;25.90;99.90;;;;;;5025789;28;20032;-61
2023/07/08 01:43:16;;;;;;;6.68;5.70;;;25.80;99.90;;;;;;5037909;28;20029;-61
2023/07/08 01:45:42;;;;;;;9.45;5.45;;;25.70;99.90;;;;;;5032745;28;20024;-61
2023/07/08 01:48:12;;;;;;;6.78;4.95;;;25.80;99.90;;;;;;5031414;28;20017;-61
2023/07/08 01:51:02;;;;;;;7.45;4.88;;;25.80;99.90;;;;;;5034875;28;20032;-61
2023/07/08 01:53:42;;;;;;;6.25;4.60;;;25.80;99.90;;;;;;5032554;28;20074;-61
2023/07/08 01:56:10;;;;;;;5.60;4.97;;;25.70;99.90;;;;;;5036165;28;20025;-61
2023/07/08 01:58:36;;;;;;;6.03;4.95;;;25.80;99.90;;;;;;5031808;28;20083;-61
2023/07/08 02:01:02;;;;;;;7.40;5.03;;;25.80;99.90;;;;;;5026399;28;20040;-61
2023/07/08 02:03:28;;;;;;;9.20;4.78;;;25.80;99.90;;;;;;5030068;28;20051;-61
2023/07/08 02:05:54;;;;;;;6.07;4.70;;;25.80;99.90;;;;;;5033353;28;20070;-61
2023/07/08 02:08:20;;;;;;;7.43;5.18;;;25.70;99.90;;;;;;5026650;28;20021;-61
2023/07/08 02:10:52;;;;;;;7.50;4.70;;;25.80;99.90;;;;;;5028766;28;20037;-61
2023/07/08 02:13:18;;;;;;;4.93;4.20;;;25.70;99.90;;;;;;5033359;28;20028;-61
2023/07/08 02:15:44;;;;;;;5.15;4.65;;;25.80;99.90;;;;;;5033248;28;20482;-60
2023/07/08 02:18:09;;;;;;;5.78;4.35;;;25.80;99.90;;;;;;5028912;28;20022;-60
2023/07/08 02:20:35;;;;;;;6.45;4.80;;;25.80;99.90;;;;;;5032733;28;20489;-60
2023/07/08 02:23:01;;;;;;;5.72;4.85;;;25.80;99.90;;;;;;5032921;28;20020;-60
2023/07/08 02:25:26;;;;;;;6.25;4.70;;;25.80;99.90;;;;;;5033255;28;20025;-60
2023/07/08 02:27:56;;;;;;;6.32;4.93;;;25.80;99.90;;;;;;5032721;28;20025;-60
2023/07/08 02:30:23;;;;;;;7.10;4.50;;;25.80;99.90;;;;;;5030984;28;20079;-60
2023/07/08 02:32:56;;;;;;;6.82;4.95;;;25.80;99.90;;;;;;5032888;28;20032;-60
2023/07/08 02:35:27;;;;;;;6.40;4.75;;;25.70;99.90;;;;;;5024244;28;20097;-59
2023/07/08 02:37:54;;;;;;;5.20;4.60;;;25.70;99.90;;;;;;5032019;28;20021;-60
2023/07/08 02:40:21;;;;;;;5.68;4.80;;;25.70;99.90;;;;;;5031636;28;20037;-60
2023/07/08 02:42:47;;;;;;;8.38;4.85;;;25.70;99.90;;;;;;5029333;28;20467;-61
2023/07/08 02:45:13;;;;;;;5.45;4.65;;;25.70;99.90;;;;;;5030343;28;20022;-61
2023/07/08 02:47:39;;;;;;;8.93;5.32;;;25.80;99.90;;;;;;5028895;28;20059;-61
2023/07/08 02:50:07;;;;;;;5.22;4.72;;;25.60;99.90;;;;;;5029441;28;20021;-60
2023/07/08 02:52:32;;;;;;;7.38;4.85;;;25.60;99.90;;;;;;5021555;28;20378;-60
2023/07/08 02:54:58;;;;;;;6.75;4.38;;;25.60;99.90;;;;;;5031957;28;20104;-60
2023/07/08 02:57:24;;;;;;;8.68;5.40;;;25.60;99.90;;;;;;5036377;28;20482;-60
2023/07/08 02:59:49;;;;;;;8.68;5.72;;;25.60;99.90;;;;;;5033103;28;20033;-60
2023/07/08 03:02:15;;;;;;;6.53;5.13;;;25.60;99.90;;;;;;5035527;28;20045;-60
2023/07/08 03:04:41;;;;;;;6.07;5.38;;;25.60;99.90;;;;;;5019102;28;20439;-60
2023/07/08 03:07:11;;;;;;;8.90;5.72;;;25.60;99.90;;;;;;5033282;28;20022;-60
2023/07/08 03:09:38;;;;;;;5.03;4.43;;;25.60;99.90;;;;;;5032742;28;20382;-60
2023/07/08 03:12:05;;;;;;;6.85;4.45;;;25.60;99.90;;;;;;5031669;28;20022;-60
2023/07/08 03:14:31;;;;;;;5.32;4.47;;;25.50;99.90;;;;;;5035541;28;20055;-60
2023/07/08 03:16:57;;;;;;;6.78;4.80;;;25.50;99.90;;;;;;5035472;28;20021;-60
2023/07/08 03:19:22;;;;;;;6.40;4.32;;;25.50;99.90;;;;;;5028444;28;20042;-60
2023/07/08 03:21:48;;;;;;;7.05;4.63;;;25.50;99.90;;;;;;5032525;28;20030;-60
2023/07/08 03:24:16;;;;;;;6.78;4.53;;;25.50;99.90;;;;;;5032590;28;20025;-60
2023/07/08 03:26:42;;;;;;;9.75;5.25;;;25.50;99.90;;;;;;5033853;28;20029;-61
2023/07/08 03:29:14;;;;;;;5.90;5.25;;;25.40;99.90;;;;;;5034441;28;20024;-60
2023/07/08 03:31:40;;;;;;;7.85;4.60;;;25.50;99.90;;;;;;5033113;28;20013;-60
2023/07/08 03:34:11;;;;;;;8.45;5.35;;;25.50;99.90;;;;;;5029076;28;20029;-60
2023/07/08 03:36:50;;;;;;;9.15;4.57;;;25.50;99.90;;;;;;5028593;28;20033;-60
2023/07/08 03:39:17;;;;;;;6.20;4.90;;;25.50;99.90;;;;;;5028093;28;20117;-60
2023/07/08 03:41:43;;;;;;;8.13;5.00;;;25.50;99.90;;;;;;5034479;28;20032;-60
2023/07/08 03:44:09;;;;;;;8.18;5.32;;;25.50;99.90;;;;;;5034220;28;20126;-60
2023/07/08 03:46:35;;;;;;;6.05;4.45;;;25.50;99.90;;;;;;5029734;28;20104;-60
2023/07/08 03:49:01;;;;;;;7.25;4.53;;;25.50;99.90;;;;;;5028970;28;20026;-60
2023/07/08 03:51:30;;;;;;;5.22;4.22;;;25.50;99.90;;;;;;5030862;28;20036;-60
2023/07/08 03:53:56;;;;;;;5.75;4.53;;;25.50;99.90;;;;;;5027772;28;20045;-60
2023/07/08 03:56:22;;;;;;;5.43;4.65;;;25.50;99.90;;;;;;5027234;28;20355;-61
2023/07/08 03:58:47;;;;;;;6.65;4.75;;;25.50;99.90;;;;;;5031350;28;20397;-60
2023/07/08 04:01:20;;;;;;;10.43;5.22;;;25.50;99.90;;;;;;5033402;28;20026;-60
2023/07/08 04:03:46;;;;;;;7.05;4.50;;;25.50;99.90;;;;;;5033661;28;20098;-60
2023/07/08 04:06:12;;;;;;;6.40;4.40;;;25.50;99.90;;;;;;5033394;28;20149;-61
2023/07/08 04:08:38;;;;;;;7.72;5.13;;;25.50;99.90;;;;;;5035268;28;20149;-60
2023/07/08 04:11:03;;;;;;;5.50;4.47;;;25.40;99.90;;;;;;5032181;28;20014;-60
2023/07/08 04:13:29;;;;;;;6.63;4.65;;;25.50;99.90;;;;;;5030755;28;20033;-60
2023/07/08 04:15:59;;;;;;;6.55;4.38;;;25.50;99.90;;;;;;5032003;28;20014;-60
2023/07/08 04:18:24;;;;;;;6.40;4.53;;;25.50;99.90;;;;;;5033312;28;20025;-60
2023/07/08 04:20:52;;;;;;;6.65;4.95;;;25.50;99.90;;;;;;5030404;28;20041;-60
2023/07/08 04:23:24;;;;;;;5.88;4.40;;;25.50;99.90;;;;;;5029729;28;20100;-60
2023/07/08 04:25:52;;;;;;;5.50;4.10;;;25.50;99.90;;;;;;5023284;28;20025;-61
2023/07/08 04:28:18;;;;;;;6.45;4.38;;;25.50;99.90;;;;;;5030467;28;20091;-61
2023/07/08 04:31:08;;;;;;;4.72;4.10;;;25.50;99.90;;;;;;5033583;28;20030;-60
2023/07/08 04:33:34;;;;;;;7.72;5.18;;;25.40;99.90;;;;;;5030811;28;20498;-60
2023/07/08 04:36:00;;;;;;;5.93;4.50;;;25.40;99.90;;;;;;5034358;28;20025;-60
2023/07/08 04:38:26;;;;;;;4.97;4.13;;;25.40;99.90;;;;;;5038109;28;20029;-60
2023/07/08 04:40:53;;;;;;;4.47;4.07;;;25.40;99.90;;;;;;5034502;28;20025;-60
2023/07/08 04:43:20;;;;;;;5.95;4.18;;;25.40;99.90;;;;;;5035432;28;20422;-60
2023/07/08 04:45:52;;;;;;;6.05;4.38;;;25.40;99.90;;;;;;5035707;28;20024;-61
2023/07/08 04:48:21;;;;;;;4.70;4.10;;;25.40;99.90;;;;;;5035371;28;20029;-60
2023/07/08 04:50:49;;;;;;;5.38;4.10;;;25.40;99.90;;;;;;5037053;28;20049;-60
2023/07/08 04:53:15;;;;;;;5.18;4.05;;;25.40;99.90;;;;;;5036114;28;20021;-60
2023/07/08 04:55:53;;;;;;;6.32;4.13;;;25.50;99.90;;;;;;5029800;28;20030;-60
2023/07/08 04:58:19;;;;;;;6.13;4.68;;;25.50;99.90;;;;;;5034467;28;20065;-60
2023/07/08 05:00:45;;;;;;;7.05;4.47;;;25.50;99.90;;;;;;5036763;28;20041;-60
2023/07/08 05:03:11;;;;;;;6.05;4.13;;;25.50;99.90;;;;;;5036477;28;20099;-60
2023/07/08 05:05:36;;;;;;;9.52;4.95;;;25.60;99.90;;;;;;5036814;28;20018;-60
2023/07/08 05:08:02;;;;;;;5.35;4.40;;;25.60;99.90;;;;;;5032540;28;20029;-60
2023/07/08 05:10:28;;;;;;;5.03;4.28;;;25.60;99.90;;;;;;5038084;28;20030;-60
2023/07/08 05:12:54;;;;;;;4.90;4.40;;;25.60;99.90;;;;;;5037817;28;20048;-61
2023/07/08 05:15:19;;;;;;;5.95;4.72;;;25.60;99.90;;;;;;5033724;28;20352;-60
2023/07/08 05:17:45;;;;;;;5.70;4.68;;;25.50;99.90;;;;;;5035793;28;20041;-60
2023/07/08 05:20:13;;;;;;;5.93;4.30;;;25.50;99.90;;;;;;5035855;28;20113;-60
2023/07/08 05:22:39;;;;;;;5.25;4.47;;;25.50;99.90;;;;;;5037083;28;20033;-60
2023/07/08 05:25:05;;;;;;;6.25;3.97;;;25.40;99.90;;;;;;5039446;28;20433;-61
2023/07/08 05:27:33;;;;;;;5.32;4.30;;;25.50;99.90;;;;;;5034312;28;20025;-60
2023/07/08 05:29:59;;;;;;;5.90;4.13;;;25.40;99.90;;;;;;5034606;28;20159;-60
2023/07/08 05:32:26;;;;;;;5.50;4.10;;;25.40;99.90;;;;;;5031614;28;20018;-60
2023/07/08 05:34:52;;;;;;;4.93;4.32;;;25.40;99.90;;;;;;5036804;28;20040;-60
2023/07/08 05:37:21;;;;;;;6.57;4.22;;;25.40;99.90;;;;;;5035491;28;20483;-60
2023/07/08 05:39:46;;;;;;;4.93;4.32;;;25.50;99.90;;;;;;5035312;28;20060;-60
2023/07/08 05:42:12;;;;;;;5.97;4.25;;;25.50;99.90;;;;;;5037521;28;20025;-60
2023/07/08 05:44:38;;;;;;;5.95;4.35;;;25.50;99.90;;;;;;5034593;28;20014;-60
2023/07/08 05:47:04;;;;;;;5.55;3.92;;;25.60;99.90;;;;;;5031035;28;20061;-60
2023/07/08 05:49:29;;;;;;;6.43;5.15;;;25.70;99.90;;;;;;5035219;28;20025;-60
2023/07/08 05:51:55;;;;;;;5.03;4.10;;;25.80;99.90;;;;;;5034322;28;20100;-60
2023/07/08 05:54:21;;;;;;;5.60;4.18;;;25.70;99.90;;;;;;5032652;28;20378;-60
2023/07/08 05:56:46;;;;;;;5.55;4.50;;;25.90;99.90;;;;;;5038024;28;20042;-60
2023/07/08 05:59:12;;;;;;;5.32;4.50;;;25.90;99.90;;;;;;5034711;28;20080;-60
2023/07/08 06:01:38;;;;;;;6.50;4.72;;;26.00;99.90;;;;;;5034380;28;20097;-60
2023/07/08 06:04:03;;;;;;;5.35;4.70;;;26.10;99.90;;;;;;5034492;28;20126;-60
2023/07/08 06:06:29;;;;;;;6.53;4.45;;;26.20;99.90;;;;;;5035071;28;20079;-60
2023/07/08 06:08:55;;;;;;;5.70;4.50;;;26.20;99.90;;;;;;5038393;28;20045;-60
2023/07/08 06:11:21;;;;;;;7.35;4.90;;;26.10;99.90;;;;;;5036452;28;20075;-60
2023/07/08 06:13:47;;;;;;;6.20;4.50;;;26.10;99.90;;;;;;5026569;28;20060;-60
2023/07/08 06:16:14;;;;;;;6.65;4.75;;;26.20;99.90;;;;;;5027773;28;20026;-60
2023/07/08 06:18:39;;;;;;;5.97;4.80;;;26.10;99.90;;;;;;5030537;28;20079;-60
2023/07/08 06:21:06;;;;;;;6.72;4.95;;;26.00;99.90;;;;;;5035542;28;20037;-61
2023/07/08 06:23:31;;;;;;;4.78;3.90;;;26.00;99.90;;;;;;5033561;28;20045;-60
2023/07/08 06:25:57;;;;;;;7.07;5.10;;;26.00;99.90;;;;;;5036109;28;20052;-60
2023/07/08 06:28:23;;;;;;;7.20;4.82;;;26.10;99.90;;;;;;5036689;28;20374;-60
2023/07/08 06:30:49;;;;;;;5.72;4.97;;;26.20;99.90;;;;;;5033666;28;20025;-60
2023/07/08 06:33:15;;;;;;;6.63;4.47;;;26.20;99.90;;;;;;5033671;28;20040;-60
2023/07/08 06:35:41;;;;;;;6.47;4.53;;;26.20;99.90;;;;;;5033803;28;20429;-60
2023/07/08 06:38:08;;;;;;;7.85;4.40;;;26.30;99.90;;;;;;5029307;28;20477;-60
2023/07/08 06:40:34;;;;;;;6.55;4.40;;;26.30;99.90;;;;;;5033280;28;20037;-60
2023/07/08 06:43:00;;;;;;;8.45;4.65;;;26.40;99.90;;;;;;5037858;28;20017;-61
2023/07/08 06:45:25;;;;;;;7.68;4.82;;;26.40;99.90;;;;;;5030113;28;20033;-60
2023/07/08 06:47:51;;;;;;;5.20;4.50;;;26.50;99.90;;;;;;5032541;28;20022;-60
2023/07/08 06:50:17;;;;;;;5.30;4.35;;;26.70;99.90;;;;;;5033576;28;20108;-60
2023/07/08 06:52:42;;;;;;;8.02;5.13;;;26.80;99.90;;;;;;5034971;28;20105;-60
2023/07/08 06:55:10;;;;;;;7.93;4.65;;;26.70;99.90;;;;;;5036523;28;20035;-60
2023/07/08 06:57:38;;;;;;;5.80;4.70;;;26.70;99.90;;;;;;5033879;28;20446;-60
2023/07/08 07:00:07;;;;;;;7.22;4.15;;;26.60;99.90;;;;;;5032584;28;20443;-60
2023/07/08 07:02:34;;;;;;;5.50;4.85;;;26.50;99.90;;;;;;5032510;28;20036;-60
2023/07/08 07:05:00;;;;;;;6.55;4.47;;;26.50;99.90;;;;;;5034466;28;20095;-60
2023/07/08 07:07:26;;;;;;;5.53;4.65;;;26.50;99.90;;;;;;5034069;28;20025;-60
2023/07/08 07:09:51;;;;;;;6.53;4.95;;;26.50;99.90;;;;;;5033798;28;20033;-60
2023/07/08 07:12:18;;;;;;;5.05;4.50;;;26.50;99.90;;;;;;5035081;28;20022;-60
2023/07/08 07:14:44;;;;;;;8.23;4.38;;;26.50;99.90;;;;;;5035631;28;20529;-60
2023/07/08 07:17:09;;;;;;;6.78;5.30;;;26.60;99.90;;;;;;5032651;28;20018;-60
2023/07/08 07:19:35;;;;;;;5.63;4.45;;;26.60;99.90;;;;;;5029733;28;20041;-60
2023/07/08 07:22:01;;;;;;;6.50;4.90;;;26.60;99.90;;;;;;5032656;28;20021;-60
2023/07/08 07:24:26;;;;;;;7.65;5.13;;;26.70;99.90;;;;;;5033895;28;20037;-60
2023/07/08 07:26:52;;;;;;;6.45;5.30;;;26.70;99.90;;;;;;5035945;28;20428;-61
2023/07/08 07:29:18;;;;;;;6.95;5.15;;;26.60;99.90;;;;;;5031975;28;20052;-60
2023/07/08 07:31:44;;;;;;;5.55;4.38;;;26.70;99.90;;;;;;5028803;28;20028;-60
2023/07/08 07:34:11;;;;;;;6.18;5.20;;;26.80;99.90;;;;;;5032816;28;20028;-61
2023/07/08 07:36:37;;;;;;;8.27;4.40;;;26.80;99.90;;;;;;5026470;28;20025;-60
2023/07/08 07:39:03;;;;;;;9.07;5.65;;;26.80;99.90;;;;;;5024604;28;20024;-60
2023/07/08 07:41:29;;;;;;;6.30;5.30;;;26.80;99.90;;;;;;5031164;28;20033;-60
2023/07/08 07:43:54;;;;;;;5.32;4.78;;;26.70;99.90;;;;;;5030620;28;20471;-60
2023/07/08 07:46:21;;;;;;;9.80;5.35;;;26.80;99.90;;;;;;5030473;28;20029;-60
2023/07/08 07:48:47;;;;;;;8.90;6.93;;;26.90;99.90;;;;;;5032831;28;20083;-60
2023/07/08 07:51:13;;;;;;;9.80;5.70;;;26.80;99.90;;;;;;5033388;28;20033;-61
2023/07/08 07:53:39;;;;;;;5.72;5.20;;;26.90;99.90;;;;;;5028790;28;20025;-60
2023/07/08 07:56:06;;;;;;;7.28;5.13;;;26.90;99.90;;;;;;5029021;28;20478;-60
2023/07/08 07:58:32;;;;;;;9.82;5.55;;;27.00;99.90;;;;;;5032787;28;20053;-60
2023/07/08 08:00:58;;;;;;;5.43;4.90;;;27.00;99.90;;;;;;5033354;28;20030;-60
2023/07/08 08:03:24;;;;;;;6.75;5.13;;;27.00;99.90;;;;;;5036166;28;20037;-63
2023/07/08 08:05:49;;;;;;;8.63;4.47;;;27.10;99.90;;;;;;5030333;28;20030;-60
2023/07/08 08:08:15;;;;;;;6.57;5.68;;;27.20;99.90;;;;;;5026072;28;20521;-60
2023/07/08 08:10:44;;;;;;;5.75;4.20;;;27.30;99.90;;;;;;5036190;28;20425;-61
2023/07/08 08:13:11;;;;;;;7.25;4.60;;;27.40;99.90;;;;;;5037759;28;20053;-60
2023/07/08 08:15:37;;;;;;;8.30;5.00;;;27.50;99.90;;;;;;5038831;28;20026;-60
2023/07/08 08:18:03;;;;;;;6.10;5.50;;;27.60;99.90;;;;;;5035430;28;20101;-61
2023/07/08 08:20:29;;;;;;;5.55;5.03;;;27.70;99.90;;;;;;5021752;28;20121;-61
2023/07/08 08:22:55;;;;;;;11.93;5.97;;;27.60;99.90;;;;;;5036257;28;20075;-61
2023/07/08 08:25:23;;;;;;;6.45;5.28;;;27.60;99.90;;;;;;5034354;28;20028;-61
2023/07/08 08:27:49;;;;;;;6.95;4.88;;;27.60;99.90;;;;;;5032255;28;20104;-62
2023/07/08 08:30:15;;;;;;;5.45;4.75;;;27.70;99.90;;;;;;5037497;28;20517;-61
2023/07/08 08:32:41;;;;;;;4.72;4.20;;;27.60;99.90;;;;;;5034982;28;20164;-62
2023/07/08 08:35:07;;;;;;;5.55;4.80;;;27.60;99.90;;;;;;5034388;28;20387;-61
2023/07/08 08:37:33;;;;;;;6.68;4.57;;;27.50;99.90;;;;;;5032350;28;20094;-61
2023/07/08 08:39:58;;;;;;;5.07;4.40;;;27.60;99.90;;;;;;5036431;28;20467;-60
2023/07/08 08:42:41;;;;;;;6.38;4.90;;;27.50;99.90;;;;;;5035937;28;20475;-60
2023/07/08 08:45:12;;;;;;;6.57;4.60;;;27.50;99.90;;;;;;5036618;28;20075;-61
2023/07/08 08:47:39;;;;;;;7.30;4.53;;;27.60;99.90;;;;;;5040491;28;20424;-61
2023/07/08 08:50:35;;;;;;;5.68;4.25;;;27.70;99.90;;;;;;5034852;28;20030;-60
2023/07/08 08:53:04;;;;;;;6.88;4.70;;;27.70;99.90;;;;;;5032735;28;20042;-62
2023/07/08 08:55:30;;;;;;;7.35;5.35;;;27.80;99.90;;;;;;5028691;28;20021;-61
2023/07/08 08:58:06;;;;;;;5.90;4.53;;;28.10;99.90;;;;;;5030746;28;20499;-61
2023/07/08 09:00:54;;;;;;;6.63;4.82;;;28.20;99.90;;;;;;5037356;28;20041;-61
2023/07/08 09:03:34;;;;;;;5.93;5.18;;;28.40;99.90;;;;;;5040402;28;20034;-62
2023/07/08 09:06:01;;;;;;;5.28;4.72;;;28.40;99.90;;;;;;5022457;28;20052;-61
2023/07/08 09:08:34;;;;;;;6.90;4.85;;;28.40;99.90;;;;;;5029559;28;20029;-60
2023/07/08 09:11:02;;;;;;;7.22;5.32;;;28.40;99.90;;;;;;5033302;28;20017;-61
2023/07/08 09:13:36;;;;;;;6.85;5.38;;;28.50;99.90;;;;;;5033523;28;20055;-61
2023/07/08 09:16:13;;;;;;;6.32;4.75;;;28.40;99.90;;;;;;5035989;28;20024;-61
2023/07/08 09:18:50;;;;;;;5.93;5.32;;;28.60;99.90;;;;;;5038059;28;20059;-61
2023/07/08 09:21:21;;;;;;;5.45;4.93;;;28.90;99.90;;;;;;5032016;28;20453;-61
2023/07/08 09:23:50;;;;;;;7.97;4.80;;;29.10;99.90;;;;;;5035108;28;20018;-60
2023/07/08 09:26:22;;;;;;;6.30;4.90;;;29.10;99.90;;;;;;5035665;28;20026;-60
2023/07/08 09:28:48;;;;;;;7.32;5.43;;;29.10;99.90;;;;;;5036446;28;20021;-60
2023/07/08 09:31:30;;;;;;;10.13;5.88;;;29.10;99.90;;;;;;5036444;28;20029;-60
2023/07/08 09:34:08;;;;;;;11.90;5.32;;;29.10;99.90;;;;;;5034645;28;20045;-60
2023/07/08 09:36:34;;;;;;;7.00;5.57;;;29.10;99.90;;;;;;5030194;28;20020;-60
2023/07/08 09:39:01;;;;;;;7.32;5.10;;;29.00;99.90;;;;;;5034394;28;20378;-60
2023/07/08 09:41:35;;;;;;;9.13;5.38;;;29.00;99.90;;;;;;5034643;28;20033;-60
2023/07/08 09:44:33;;;;;;;9.68;5.82;;;28.90;99.90;;;;;;5036287;28;20025;-60
2023/07/08 09:46:59;;;;;;;10.18;6.38;;;28.90;99.90;;;;;;5033463;28;20043;-60
2023/07/08 09:49:31;;;;;;;7.18;5.82;;;28.90;99.90;;;;;;5039143;28;20162;-60
2023/07/08 09:51:58;;;;;;;5.13;4.50;;;29.00;99.90;;;;;;5027946;28;20504;-60
2023/07/08 09:54:25;;;;;;;6.80;5.28;;;29.00;99.90;;;;;;5032011;28;20108;-60
2023/07/08 09:57:16;;;;;;;7.45;5.30;;;28.90;99.90;;;;;;5033769;28;20065;-60
2023/07/08 09:59:52;;;;;;;10.88;6.72;;;29.00;99.90;;;;;;5035884;28;20034;-60
2023/07/08 10:02:23;;;;;;;7.28;5.15;;;29.00;99.90;;;;;;5031539;28;20116;-60
2023/07/08 10:04:53;;;;;;;9.68;6.03;;;29.00;99.90;;;;;;5036840;28;20033;-65
2023/07/08 10:07:18;;;;;;;5.25;4.25;;;29.10;99.90;;;;;;5032301;28;20033;-66
2023/07/08 10:09:50;;;;;;;10.93;6.40;;;29.10;99.90;;;;;;5034286;28;20037;-64
2023/07/08 10:12:16;;;;;;;5.20;4.70;;;29.10;99.90;;;;;;5031664;28;20018;-64
2023/07/08 10:14:54;;;;;;;5.65;5.07;;;29.20;99.90;;;;;;5030897;28;20029;-65
2023/07/08 10:17:21;;;;;;;6.88;5.32;;;29.20;99.90;;;;;;5038361;28;20033;-64
2023/07/08 10:19:47;;;;;;;7.05;5.18;;;29.30;99.90;;;;;;5037152;28;20029;-65
2023/07/08 10:22:25;;;;;;;6.05;4.93;;;29.30;99.90;;;;;;5033167;28;20033;-65
2023/07/08 10:25:06;;;;;;;6.20;5.30;;;29.70;99.90;;;;;;5033526;28;20454;-65
2023/07/08 10:27:42;;;;;;;5.75;4.57;;;30.30;99.90;;;;;;5049363;28;20025;-65
2023/07/08 10:30:19;;;;;;;6.90;5.78;;;30.70;99.90;;;;;;5029075;28;20379;-65
2023/07/08 10:32:53;;;;;;;5.95;5.45;;;31.20;99.90;;;;;;5031416;28;20422;-65
2023/07/08 10:35:27;;;;;;;6.88;4.30;;;31.50;99.90;;;;;;5038358;28;20531;-65
2023/07/08 10:38:13;;;;;;;7.30;5.22;;;31.10;99.90;;;;;;5032778;28;20384;-65
2023/07/08 10:41:04;;;;;;;5.47;4.97;;;31.80;99.90;;;;;;5030327;28;20029;-65
2023/07/08 10:44:04;;;;;;;8.20;5.47;;;31.50;99.90;;;;;;5032801;28;20036;-65
2023/07/08 10:46:58;;;;;;;7.00;6.05;;;30.90;99.90;;;;;;5034970;28;20076;-65
2023/07/08 10:49:48;;;;;;;5.75;5.25;;;31.50;99.90;;;;;;5037831;28;20037;-65
2023/07/08 10:52:38;;;;;;;5.70;5.20;;;31.70;99.90;;;;;;5033047;28;20041;-65
2023/07/08 10:55:29;;;;;;;7.07;5.40;;;31.60;99.90;;;;;;5030307;28;20045;-65
2023/07/08 10:58:38;;;;;;;6.45;5.65;;;31.90;99.90;;;;;;5032403;28;20048;-65
2023/07/08 11:01:26;;;;;;;9.25;5.60;;;32.70;99.90;;;;;;5032071;28;20103;-65
2023/07/08 11:04:51;;;;;;;12.93;10.82;;;31.80;99.90;;;;;;5033805;28;20049;-65
2023/07/08 11:07:35;;;;;;;14.65;5.90;;;31.20;99.90;;;;;;5007277;28;20076;-64
2023/07/08 11:10:21;;;;;;;;;;;31.10;99.90;;;;;;5026749;28;20021;-65
2023/07/08 11:12:51;;;;;;;6.60;5.60;;;30.90;99.90;;;;;;5029079;28;19912;-64
2023/07/08 11:15:53;;;;;;;6.75;5.53;;;31.10;99.90;;;;;;5032225;28;20137;-65
2023/07/08 11:18:24;;;;;;;6.40;5.80;;;31.30;99.90;;;;;;5039334;28;20490;-65
2023/07/08 11:21:11;;;;;;;6.00;5.40;;;31.30;99.90;;;;;;5033834;28;20052;-65
2023/07/08 11:24:07;;;;;;;5.35;4.95;;;31.50;99.90;;;;;;5031734;28;20025;-65
2023/07/08 11:26:40;;;;;;;5.75;5.20;;;31.90;99.90;;;;;;5032527;28;20059;-65
2023/07/08 11:29:35;;;;;;;5.47;4.97;;;34.10;99.90;;;;;;5030927;28;20068;-65
2023/07/08 11:32:02;;;;;;;7.45;6.15;;;36.90;99.90;;;;;;5032654;28;20491;-65
2023/07/08 11:34:28;;;;;;;7.05;5.60;;;38.10;99.90;;;;;;5033468;28;20056;-65
2023/07/08 11:36:57;;;;;;;7.57;6.45;;;37.30;99.90;;;;;;5035426;28;20033;-65
2023/07/08 11:39:43;;;;;;;11.48;6.40;;;37.20;99.90;;;;;;5036211;28;20057;-66
2023/07/08 11:42:41;;;;;;;7.25;6.47;;;38.60;99.90;;;;;;5033162;28;20038;-65
2023/07/08 11:45:17;;;;;;;6.72;6.13;;;40.60;99.90;;;;;;5035594;28;20546;-65
2023/07/08 11:47:48;;;;;;;7.75;6.80;;;41.30;99.90;;;;;;5034943;28;20037;-66
2023/07/08 11:50:30;;;;;;;7.82;7.10;;;43.60;99.90;;;;;;5038683;28;20716;-65
2023/07/08 11:53:00;;;;;;;7.05;6.15;;;44.80;99.90;;;;;;5036154;28;20025;-66
2023/07/08 11:55:47;;;;;;;7.45;6.72;;;46.10;99.90;;;;;;5035790;28;20116;-66
2023/07/08 11:58:51;;;;;;;7.43;6.82;;;45.80;99.90;;;;;;5030023;28;20047;-66
2023/07/08 12:01:17;;;;;;;9.13;8.30;;;46.80;99.90;;;;;;5025778;28;20443;-66
2023/07/08 12:03:50;;;;;;;8.23;7.43;;;46.70;99.90;;;;;;5036770;28;20512;-66
2023/07/08 12:06:27;;;;;;;7.80;7.05;;;47.30;99.90;;;;;;5036156;28;20029;-66
2023/07/08 12:08:58;;;;;;;7.57;7.07;;;47.00;99.90;;;;;;5038272;28;20035;-66
2023/07/08 12:11:39;;;;;;;7.30;6.70;;;46.70;99.90;;;;;;5038756;28;20034;-66
2023/07/08 12:14:07;;;;;;;7.22;6.65;;;47.40;99.90;;;;;;5034247;28;20029;-66
2023/07/08 12:16:32;;;;;;;7.93;7.20;;;46.10;99.90;;;;;;5035932;28;20045;-66
2023/07/08 12:19:00;;;;;;;7.60;7.03;;;45.30;99.90;;;;;;5036623;28;20056;-66
2023/07/08 12:21:27;;;;;;;8.48;7.45;;;42.20;99.90;;;;;;5035705;28;20498;-66
2023/07/08 12:23:54;;;;;;;7.40;6.85;;;40.60;99.90;;;;;;5039377;28;20033;-66
2023/07/08 12:26:21;;;;;;;7.63;6.93;;;39.70;99.90;;;;;;5038512;28;20029;-66
2023/07/08 12:28:47;;;;;;;7.35;6.75;;;39.70;99.90;;;;;;5036548;28;20037;-66
2023/07/08 12:31:21;;;;;;;8.13;7.40;;;39.70;99.90;;;;;;5035073;28;20020;-66
2023/07/08 12:33:47;;;;;;;7.30;6.68;;;39.20;99.90;;;;;;5037042;28;20025;-66
2023/07/08 12:36:20;;;;;;;7.18;6.68;;;40.00;99.90;;;;;;5036631;28;20070;-66
2023/07/08 12:38:47;;;;;;;7.18;6.57;;;42.10;99.90;;;;;;5037750;28;20029;-66
2023/07/08 12:41:18;;;;;;;6.90;6.40;;;41.80;99.90;;;;;;5031427;28;20116;-66
2023/07/08 12:43:45;;;;;;;7.40;6.72;;;42.20;99.90;;;;;;5040627;28;20471;-66
2023/07/08 12:46:12;;;;;;;7.07;6.47;;;41.10;99.90;;;;;;5035278;28;20038;-66
2023/07/08 12:48:39;;;;;;;6.93;6.43;;;40.40;99.90;;;;;;5031886;28;20467;-66
2023/07/08 12:51:10;;;;;;;7.72;7.00;;;40.80;99.90;;;;;;5032101;28;20017;-66
2023/07/08 12:53:36;;;;;;;6.95;6.30;;;40.00;99.90;;;;;;5032107;28;20065;-66
2023/07/08 12:56:02;;;;;;;7.63;6.90;;;38.90;99.90;;;;;;5033261;28;20053;-66
2023/07/08 12:58:34;;;;;;;7.35;6.65;;;38.50;99.90;;;;;;5036983;28;20095;-66
2023/07/08 13:01:03;;;;;;;6.55;6.15;;;38.30;99.90;;;;;;5027724;28;20034;-67